Koyo — JD2279 — position and weather

sailwx.info

Track history (hours):
 
Tides and Currents Weather Stations Pressure Air Temp Water Temp Dewpoint Dewpoint Depression Visibility Wind Speed Wind Dir Waves Ship Positions

Koyo

Last reported at 2017-Feb-24 05:33 UTC. Time now 2017-Feb-24 05:53 UTC.
Position N 34°40' E 135°14'.

Length 80 m; draft 3.7 m.

Type: Cargo ship. MMSI: 431301812.

Date/timePositionNaut miles runAvg speedWind from/ knotsBaromVisibWave heightAir tempDewpointWater temp
2017-Feb-24 05:33N 34°40' E 135°14'0 0.0
2017-Feb-24 04:33N 34°40' E 135°14'0 0.0
2017-Feb-24 03:33N 34°40' E 135°14'0 0.0
2017-Feb-24 02:33N 34°40' E 135°14'1 0.9
2017-Feb-24 01:33N 34°39' E 135°15'0 0.0
2017-Feb-24 00:32N 34°39' E 135°15'1 1.3
2017-Feb-23 23:33N 34°40' E 135°14'1 1.5
2017-Feb-23 22:32N 34°39' E 135°15'0 0.0
2017-Feb-23 21:31N 34°39' E 135°15'0 0.1
2017-Feb-23 20:31N 34°39' E 135°15'0 0.0
2017-Feb-23 19:31N 34°39' E 135°15'0 0.0
2017-Feb-23 18:25N 34°39' E 135°15'5 6.4
2017-Feb-23 17:33N 34°36' E 135°10'1312.8
2017-Feb-23 16:33N 34°35' E 134°54'121 6.0
2017-Feb-22 20:20N 34°02' E 132°33'1112.3
2017-Feb-22 19:26N 34°07' E 132°45'11012.2
2017-Feb-22 10:27N 34°36' E 134°53'1213.6
2017-Feb-22 09:33N 34°36' E 135°08'1313.0
2017-Feb-22 08:33N 34°38' E 135°24'1 1.3
2017-Feb-22 07:33N 34°38' E 135°25'9 8.7
2017-Feb-22 06:33N 34°39' E 135°15'0 0.1
2017-Feb-22 05:26N 34°39' E 135°15'6 6.7
2017-Feb-22 04:33N 34°35' E 135°09'124 4.6
2017-Feb-21 01:33N 33°60' E 132°45'9 9.4
2017-Feb-21 00:33N 33°51' E 132°42'0 0.0
2017-Feb-20 23:33N 33°51' E 132°42'2 1.5
2017-Feb-20 22:30N 33°51' E 132°40'0 0.1
2017-Feb-20 21:33N 33°51' E 132°40'0 0.0
2017-Feb-20 20:33N 33°51' E 132°40'1 0.7
2017-Feb-20 19:33N 33°52' E 132°41'122 9.3
2017-Feb-20 06:27N 34°37' E 134°57'1011.7
2017-Feb-20 05:33N 34°36' E 135°10'5 3.3
2017-Feb-20 04:09N 34°39' E 135°14'0 0.0
2017-Feb-20 03:33N 34°39' E 135°14'0 0.0
2017-Feb-20 02:09N 34°39' E 135°14'0 0.0
2017-Feb-20 01:27N 34°39' E 135°14'0 0.0
2017-Feb-20 00:27N 34°39' E 135°14'0 0.0
2017-Feb-19 23:33N 34°39' E 135°14'2 1.9
2017-Feb-19 22:22N 34°41' E 135°13'0 0.0
2017-Feb-19 21:16N 34°41' E 135°13'0 0.0
2017-Feb-19 20:28N 34°41' E 135°13'0 0.0
2017-Feb-19 19:28N 34°41' E 135°13'0 0.0
2017-Feb-19 18:28N 34°41' E 135°13'0 0.0
2017-Feb-19 17:28N 34°41' E 135°13'0 0.0
2017-Feb-19 16:28N 34°41' E 135°13'0 0.0
2017-Feb-19 14:28N 34°41' E 135°13'0 0.0
2017-Feb-19 13:16N 34°41' E 135°13'0 0.0
2017-Feb-19 12:28N 34°41' E 135°13'0 0.0
2017-Feb-19 11:28N 34°41' E 135°13'0 0.0
2017-Feb-19 10:28N 34°41' E 135°13'0 0.0
2017-Feb-19 09:22N 34°41' E 135°13'0 0.0
2017-Feb-19 08:28N 34°41' E 135°13'0 0.0
2017-Feb-19 07:28N 34°41' E 135°13'0 0.0
2017-Feb-19 06:28N 34°41' E 135°13'0 0.0
2017-Feb-19 04:28N 34°41' E 135°13'0 0.0
2017-Feb-19 03:28N 34°41' E 135°13'0 0.0
2017-Feb-19 02:22N 34°41' E 135°13'0 0.0
2017-Feb-19 01:28N 34°41' E 135°13'0 0.0
2017-Feb-19 00:28N 34°41' E 135°13'0 0.0
2017-Feb-18 23:28N 34°41' E 135°13'0 0.0
2017-Feb-18 22:28N 34°41' E 135°13'0 0.0
2017-Feb-18 21:28N 34°41' E 135°13'0 0.0
2017-Feb-18 20:22N 34°41' E 135°13'0 0.0
2017-Feb-18 19:28N 34°41' E 135°13'0 0.0
2017-Feb-18 18:28N 34°41' E 135°13'1 1.3
2017-Feb-18 17:33N 34°41' E 135°14'10 9.5
2017-Feb-18 16:33N 34°35' E 135°05'1110.6
2017-Feb-18 15:33N 34°34' E 134°52'28 1.4
2017-Feb-17 19:25N 34°07' E 134°47'1112.7
2017-Feb-17 18:31N 34°14' E 134°57'1111.7
2017-Feb-17 17:33N 34°25' E 135°02'1312.8
2017-Feb-17 16:33N 34°35' E 135°11'5 5.1
2017-Feb-17 15:33N 34°39' E 135°15'0 0.0
2017-Feb-17 14:33N 34°39' E 135°15'0 0.0
2017-Feb-17 13:33N 34°39' E 135°15'0 0.0
2017-Feb-17 12:33N 34°39' E 135°15'1 0.6
2017-Feb-17 11:25N 34°39' E 135°15'0 0.0
2017-Feb-17 10:31N 34°39' E 135°15'9 9.2
2017-Feb-17 09:32N 34°30' E 135°11'1211.6
2017-Feb-17 08:28N 34°21' E 135°02'7 7.8
2017-Feb-17 07:33N 34°14' E 135°05'4 3.6
2017-Feb-17 06:33N 34°12' E 135°09'0 0.0
2017-Feb-17 05:33N 34°12' E 135°09'1 1.1
2017-Feb-17 04:34N 34°13' E 135°07'10 9.8
2017-Feb-17 03:29N 34°21' E 134°59'1111.8
2017-Feb-17 02:33N 34°30' E 135°07'1111.0
2017-Feb-17 01:33N 34°39' E 135°15'0 0.0
2017-Feb-17 00:33N 34°39' E 135°15'0 0.0
2017-Feb-16 23:33N 34°39' E 135°15'1 0.7
2017-Feb-16 22:33N 34°39' E 135°15'0 0.0
2017-Feb-16 21:30N 34°39' E 135°15'0 0.0
2017-Feb-16 20:24N 34°39' E 135°15'0 0.0
2017-Feb-16 19:24N 34°39' E 135°15'0 0.0
2017-Feb-16 18:30N 34°39' E 135°15'0 0.0
2017-Feb-16 17:30N 34°39' E 135°15'0 0.0
2017-Feb-16 16:33N 34°39' E 135°15'10 9.6
2017-Feb-16 15:32N 34°35' E 135°04'10 9.8
2017-Feb-16 14:33N 34°34' E 134°52'1 0.0
2017-Feb-15 10:30N 34°35' E 134°53'1010.5
2017-Feb-15 09:33N 34°36' E 135°05'1312.6
2017-Feb-15 08:34N 34°38' E 135°20'5 4.6
2017-Feb-15 07:33N 34°37' E 135°25'9 8.9
2017-Feb-15 06:33N 34°40' E 135°14'0 0.0
2017-Feb-15 05:33N 34°40' E 135°14'0 0.0
2017-Feb-15 04:33N 34°40' E 135°14'1 1.3
2017-Feb-15 03:33N 34°38' E 135°15'0 0.1
2017-Feb-15 02:33N 34°38' E 135°15'0 0.0
2017-Feb-15 01:33N 34°38' E 135°15'0 0.0
2017-Feb-15 00:33N 34°38' E 135°15'0 0.0
2017-Feb-14 23:33N 34°38' E 135°15'0 0.0
2017-Feb-14 22:33N 34°38' E 135°15'3 2.6
2017-Feb-14 21:33N 34°37' E 135°13'1212.3
2017-Feb-14 20:33N 34°36' E 134°58'11811.8
2017-Feb-14 10:33N 33°57' E 132°42'1111.2
2017-Feb-14 09:33N 33°52' E 132°31'1111.2
2017-Feb-14 08:33N 33°50' E 132°17'  
Track history (hours):
 
Tides and Currents Weather Stations Pressure Air Temp Water Temp Dewpoint Dewpoint Depression Visibility Wind Speed Wind Dir Waves Ship Positions

Koyo

Last reported at 2017-Feb-24 05:33 UTC. Time now 2017-Feb-24 05:53 UTC.
Position N 34°40' E 135°14'.

Length 80 m; draft 3.7 m.

Type: Cargo ship. MMSI: 431301812.

Date/timePositionNaut miles runAvg speedWind from/ knotsBaromVisibWave heightAir tempDewpointWater temp
2017-Feb-24 05:33N 34°40' E 135°14'0 0.0
2017-Feb-24 04:33N 34°40' E 135°14'0 0.0
2017-Feb-24 03:33N 34°40' E 135°14'0 0.0
2017-Feb-24 02:33N 34°40' E 135°14'1 0.9
2017-Feb-24 01:33N 34°39' E 135°15'0 0.0
2017-Feb-24 00:32N 34°39' E 135°15'1 1.3
2017-Feb-23 23:33N 34°40' E 135°14'1 1.5
2017-Feb-23 22:32N 34°39' E 135°15'0 0.0
2017-Feb-23 21:31N 34°39' E 135°15'0 0.1
2017-Feb-23 20:31N 34°39' E 135°15'0 0.0
2017-Feb-23 19:31N 34°39' E 135°15'0 0.0
2017-Feb-23 18:25N 34°39' E 135°15'5 6.4
2017-Feb-23 17:33N 34°36' E 135°10'1312.8
2017-Feb-23 16:33N 34°35' E 134°54'121 6.0
2017-Feb-22 20:20N 34°02' E 132°33'1112.3
2017-Feb-22 19:26N 34°07' E 132°45'11012.2
2017-Feb-22 10:27N 34°36' E 134°53'1213.6
2017-Feb-22 09:33N 34°36' E 135°08'1313.0
2017-Feb-22 08:33N 34°38' E 135°24'1 1.3
2017-Feb-22 07:33N 34°38' E 135°25'9 8.7
2017-Feb-22 06:33N 34°39' E 135°15'0 0.1
2017-Feb-22 05:26N 34°39' E 135°15'6 6.7
2017-Feb-22 04:33N 34°35' E 135°09'124 4.6
2017-Feb-21 01:33N 33°60' E 132°45'9 9.4
2017-Feb-21 00:33N 33°51' E 132°42'0 0.0
2017-Feb-20 23:33N 33°51' E 132°42'2 1.5
2017-Feb-20 22:30N 33°51' E 132°40'0 0.1
2017-Feb-20 21:33N 33°51' E 132°40'0 0.0
2017-Feb-20 20:33N 33°51' E 132°40'1 0.7
2017-Feb-20 19:33N 33°52' E 132°41'122 9.3
2017-Feb-20 06:27N 34°37' E 134°57'1011.7
2017-Feb-20 05:33N 34°36' E 135°10'5 3.3
2017-Feb-20 04:09N 34°39' E 135°14'0 0.0
2017-Feb-20 03:33N 34°39' E 135°14'0 0.0
2017-Feb-20 02:09N 34°39' E 135°14'0 0.0
2017-Feb-20 01:27N 34°39' E 135°14'0 0.0
2017-Feb-20 00:27N 34°39' E 135°14'0 0.0
2017-Feb-19 23:33N 34°39' E 135°14'2 1.9
2017-Feb-19 22:22N 34°41' E 135°13'0 0.0
2017-Feb-19 21:16N 34°41' E 135°13'0 0.0
2017-Feb-19 20:28N 34°41' E 135°13'0 0.0
2017-Feb-19 19:28N 34°41' E 135°13'0 0.0
2017-Feb-19 18:28N 34°41' E 135°13'0 0.0
2017-Feb-19 17:28N 34°41' E 135°13'0 0.0
2017-Feb-19 16:28N 34°41' E 135°13'0 0.0
2017-Feb-19 14:28N 34°41' E 135°13'0 0.0
2017-Feb-19 13:16N 34°41' E 135°13'0 0.0
2017-Feb-19 12:28N 34°41' E 135°13'0 0.0
2017-Feb-19 11:28N 34°41' E 135°13'0 0.0
2017-Feb-19 10:28N 34°41' E 135°13'0 0.0
2017-Feb-19 09:22N 34°41' E 135°13'0 0.0
2017-Feb-19 08:28N 34°41' E 135°13'0 0.0
2017-Feb-19 07:28N 34°41' E 135°13'0 0.0
2017-Feb-19 06:28N 34°41' E 135°13'0 0.0
2017-Feb-19 04:28N 34°41' E 135°13'0 0.0
2017-Feb-19 03:28N 34°41' E 135°13'0 0.0
2017-Feb-19 02:22N 34°41' E 135°13'0 0.0
2017-Feb-19 01:28N 34°41' E 135°13'0 0.0
2017-Feb-19 00:28N 34°41' E 135°13'0 0.0
2017-Feb-18 23:28N 34°41' E 135°13'0 0.0
2017-Feb-18 22:28N 34°41' E 135°13'0 0.0
2017-Feb-18 21:28N 34°41' E 135°13'0 0.0
2017-Feb-18 20:22N 34°41' E 135°13'0 0.0
2017-Feb-18 19:28N 34°41' E 135°13'0 0.0
2017-Feb-18 18:28N 34°41' E 135°13'1 1.3
2017-Feb-18 17:33N 34°41' E 135°14'10 9.5
2017-Feb-18 16:33N 34°35' E 135°05'1110.6
2017-Feb-18 15:33N 34°34' E 134°52'28 1.4
2017-Feb-17 19:25N 34°07' E 134°47'1112.7
2017-Feb-17 18:31N 34°14' E 134°57'1111.7
2017-Feb-17 17:33N 34°25' E 135°02'1312.8
2017-Feb-17 16:33N 34°35' E 135°11'5 5.1
2017-Feb-17 15:33N 34°39' E 135°15'0 0.0
2017-Feb-17 14:33N 34°39' E 135°15'0 0.0
2017-Feb-17 13:33N 34°39' E 135°15'0 0.0
2017-Feb-17 12:33N 34°39' E 135°15'1 0.6
2017-Feb-17 11:25N 34°39' E 135°15'0 0.0
2017-Feb-17 10:31N 34°39' E 135°15'9 9.2
2017-Feb-17 09:32N 34°30' E 135°11'1211.6
2017-Feb-17 08:28N 34°21' E 135°02'7 7.8
2017-Feb-17 07:33N 34°14' E 135°05'4 3.6
2017-Feb-17 06:33N 34°12' E 135°09'0 0.0
2017-Feb-17 05:33N 34°12' E 135°09'1 1.1
2017-Feb-17 04:34N 34°13' E 135°07'10 9.8
2017-Feb-17 03:29N 34°21' E 134°59'1111.8
2017-Feb-17 02:33N 34°30' E 135°07'1111.0
2017-Feb-17 01:33N 34°39' E 135°15'0 0.0
2017-Feb-17 00:33N 34°39' E 135°15'0 0.0
2017-Feb-16 23:33N 34°39' E 135°15'1 0.7
2017-Feb-16 22:33N 34°39' E 135°15'0 0.0
2017-Feb-16 21:30N 34°39' E 135°15'0 0.0
2017-Feb-16 20:24N 34°39' E 135°15'0 0.0
2017-Feb-16 19:24N 34°39' E 135°15'0 0.0
2017-Feb-16 18:30N 34°39' E 135°15'0 0.0
2017-Feb-16 17:30N 34°39' E 135°15'0 0.0
2017-Feb-16 16:33N 34°39' E 135°15'10 9.6
2017-Feb-16 15:32N 34°35' E 135°04'10 9.8
2017-Feb-16 14:33N 34°34' E 134°52'1 0.0
2017-Feb-15 10:30N 34°35' E 134°53'1010.5
2017-Feb-15 09:33N 34°36' E 135°05'1312.6
2017-Feb-15 08:34N 34°38' E 135°20'5 4.6
2017-Feb-15 07:33N 34°37' E 135°25'9 8.9
2017-Feb-15 06:33N 34°40' E 135°14'0 0.0
2017-Feb-15 05:33N 34°40' E 135°14'0 0.0
2017-Feb-15 04:33N 34°40' E 135°14'1 1.3
2017-Feb-15 03:33N 34°38' E 135°15'0 0.1
2017-Feb-15 02:33N 34°38' E 135°15'0 0.0
2017-Feb-15 01:33N 34°38' E 135°15'0 0.0
2017-Feb-15 00:33N 34°38' E 135°15'0 0.0
2017-Feb-14 23:33N 34°38' E 135°15'0 0.0
2017-Feb-14 22:33N 34°38' E 135°15'3 2.6
2017-Feb-14 21:33N 34°37' E 135°13'1212.3
2017-Feb-14 20:33N 34°36' E 134°58'11811.8
2017-Feb-14 10:33N 33°57' E 132°42'1111.2
2017-Feb-14 09:33N 33°52' E 132°31'1111.2
2017-Feb-14 08:33N 33°50' E 132°17'  

Dump ship's entire track history